createdAt,value
2018-04-15T00:00:21.769Z,5.33
2018-04-15T00:02:50.194Z,4.80
2018-04-15T00:05:18.590Z,5.67
2018-04-15T00:07:47.044Z,5.47
2018-04-15T00:10:15.565Z,5.00
2018-04-15T00:12:43.954Z,5.60
2018-04-15T00:15:12.745Z,5.60
2018-04-15T00:17:41.148Z,5.07
2018-04-15T00:20:09.691Z,5.87
2018-04-15T00:22:38.204Z,4.70
2018-04-15T00:25:06.568Z,5.30
2018-04-15T00:27:34.957Z,5.50
2018-04-15T00:30:03.328Z,4.73
2018-04-15T00:32:31.766Z,6.10
2018-04-15T00:35:00.140Z,5.10
2018-04-15T00:37:28.515Z,4.40
2018-04-15T00:39:56.878Z,5.10
2018-04-15T00:42:25.379Z,4.90
2018-04-15T00:44:53.819Z,4.10
2018-04-15T00:47:22.183Z,5.17
2018-04-15T00:49:50.582Z,5.40
2018-04-15T00:52:18.959Z,6.10
2018-04-15T00:54:47.311Z,5.00
2018-04-15T00:57:15.694Z,5.40
2018-04-15T00:59:44.112Z,5.37
2018-04-15T01:02:12.702Z,5.00
2018-04-15T01:04:41.789Z,4.80
2018-04-15T01:07:10.153Z,4.63
2018-04-15T01:09:38.533Z,4.43
2018-04-15T01:12:07.074Z,4.80
2018-04-15T01:14:35.440Z,4.40
2018-04-15T01:17:03.818Z,5.30
2018-04-15T01:19:32.296Z,4.97
2018-04-15T01:22:00.684Z,4.30
2018-04-15T01:24:29.079Z,4.70
2018-04-15T01:26:57.546Z,4.20
2018-04-15T01:29:25.959Z,4.33
2018-04-15T01:31:54.351Z,3.80
2018-04-15T01:34:22.784Z,4.20
2018-04-15T01:36:51.361Z,4.07
2018-04-15T01:39:19.768Z,3.83
2018-04-15T01:41:48.194Z,3.83
2018-04-15T01:44:16.694Z,3.30
2018-04-15T01:46:45.090Z,3.63
2018-04-15T01:49:13.514Z,3.70
2018-04-15T01:51:42.108Z,3.53
2018-04-15T01:54:10.510Z,3.90
2018-04-15T01:56:38.909Z,4.50
2018-04-15T01:59:07.428Z,3.70
2018-04-15T02:01:35.834Z,3.70
2018-04-15T02:04:04.432Z,3.90
2018-04-15T02:06:32.932Z,3.63
2018-04-15T02:09:01.406Z,3.53
2018-04-15T02:11:29.771Z,4.00
2018-04-15T02:13:58.138Z,3.70
2018-04-15T02:16:26.649Z,3.50
2018-04-15T02:18:55.032Z,3.77
2018-04-15T02:21:23.389Z,3.73
2018-04-15T02:23:51.766Z,3.87
2018-04-15T02:26:20.139Z,3.83
2018-04-15T02:28:48.537Z,3.40
2018-04-15T02:31:16.932Z,4.53
2018-04-15T02:33:45.487Z,3.53
2018-04-15T02:36:13.851Z,3.07
2018-04-15T02:38:42.212Z,3.83
2018-04-15T02:41:10.577Z,3.60
2018-04-15T02:43:38.934Z,3.80
2018-04-15T02:46:07.411Z,3.80
2018-04-15T02:48:35.770Z,3.13
2018-04-15T02:51:04.151Z,3.10
2018-04-15T02:53:32.510Z,3.23
2018-04-15T02:56:00.878Z,3.73
2018-04-15T02:58:29.353Z,3.30
2018-04-15T03:00:57.769Z,3.10
2018-04-15T03:03:26.150Z,3.00
2018-04-15T03:05:54.608Z,3.10
2018-04-15T03:08:23.076Z,3.30
2018-04-15T03:10:51.474Z,3.50
2018-04-15T03:13:19.876Z,2.70
2018-04-15T03:15:48.270Z,3.50
2018-04-15T03:18:16.745Z,3.13
2018-04-15T03:20:45.127Z,3.23
2018-04-15T03:23:13.524Z,3.33
2018-04-15T03:25:41.888Z,3.07
2018-04-15T03:28:10.334Z,3.73
2018-04-15T03:30:39.622Z,3.13
2018-04-15T03:33:08.216Z,3.00
2018-04-15T03:35:36.599Z,3.47
2018-04-15T03:38:05.008Z,3.37
2018-04-15T03:40:33.388Z,4.00
2018-04-15T03:43:01.795Z,3.70
2018-04-15T03:45:30.379Z,3.07
2018-04-15T03:47:58.779Z,3.57
2018-04-15T03:50:27.154Z,3.60
2018-04-15T03:52:55.982Z,3.53
2018-04-15T03:55:24.611Z,3.77
2018-04-15T03:57:53.126Z,4.07
2018-04-15T04:00:21.535Z,4.00
2018-04-15T04:02:49.931Z,3.97
2018-04-15T04:05:18.376Z,4.40
2018-04-15T04:07:46.794Z,4.60
2018-04-15T04:10:15.319Z,4.47
2018-04-15T04:12:43.727Z,3.83
2018-04-15T04:15:12.128Z,3.90
2018-04-15T04:17:52.191Z,4.10
2018-04-15T04:20:32.342Z,3.70
2018-04-15T04:23:12.365Z,4.00
2018-04-15T04:25:52.509Z,4.30
2018-04-15T04:28:21.831Z,4.40
2018-04-15T04:30:50.258Z,4.80
2018-04-15T04:33:18.608Z,4.30
2018-04-15T04:35:47.013Z,5.37
2018-04-15T04:38:15.439Z,5.30
2018-04-15T04:40:43.807Z,5.57
2018-04-15T04:43:12.196Z,5.20
2018-04-15T04:45:40.617Z,5.10
2018-04-15T04:48:09.099Z,4.90
2018-04-15T04:50:37.618Z,5.70
2018-04-15T04:53:05.984Z,6.20
2018-04-15T04:55:34.358Z,7.30
2018-04-15T04:58:02.729Z,6.43
2018-04-15T05:00:31.148Z,8.40
2018-04-15T05:02:59.783Z,12.40
2018-04-15T05:05:28.223Z,13.43
2018-04-15T05:07:56.786Z,10.43
2018-04-15T05:10:25.204Z,9.10
2018-04-15T05:12:53.610Z,10.77
2018-04-15T05:15:22.166Z,12.60
2018-04-15T05:17:50.621Z,10.30
2018-04-15T05:20:19.080Z,11.60
2018-04-15T05:22:47.527Z,10.90
2018-04-15T05:25:15.969Z,9.00
2018-04-15T05:27:44.411Z,8.90
2018-04-15T05:30:12.825Z,8.63
2018-04-15T05:32:41.230Z,9.70
2018-04-15T05:35:09.649Z,9.20
2018-04-15T05:37:38.083Z,9.20
2018-04-15T05:40:06.543Z,9.60
2018-04-15T05:42:34.987Z,10.93
2018-04-15T05:45:03.394Z,12.53
2018-04-15T05:47:31.811Z,11.70
2018-04-15T05:50:00.218Z,11.80
2018-04-15T05:52:28.646Z,13.50
2018-04-15T05:54:57.048Z,13.03
2018-04-15T05:57:25.653Z,12.37
2018-04-15T05:59:54.062Z,12.57
2018-04-15T06:02:22.652Z,11.70
2018-04-15T06:04:51.047Z,12.20
2018-04-15T06:07:19.459Z,13.27
2018-04-15T06:09:47.843Z,11.80
2018-04-15T06:12:16.228Z,10.60
2018-04-15T06:14:44.660Z,11.10
2018-04-15T06:17:13.077Z,11.20
2018-04-15T06:19:41.479Z,12.03
2018-04-15T06:22:09.889Z,10.30
2018-04-15T06:24:38.334Z,11.03
2018-04-15T06:27:06.697Z,10.60
2018-04-15T06:29:35.096Z,9.57
2018-04-15T06:32:03.551Z,7.00
2018-04-15T06:34:32.003Z,7.00
2018-04-15T06:37:00.394Z,7.03
2018-04-15T06:39:28.809Z,5.40
2018-04-15T06:41:57.170Z,5.13
2018-04-15T06:44:25.539Z,5.20
2018-04-15T06:46:53.950Z,3.50
2018-04-15T06:49:22.406Z,2.67
2018-04-15T06:51:50.823Z,2.60
2018-04-15T06:54:19.552Z,2.43
2018-04-15T06:56:48.003Z,2.17
2018-04-15T06:59:16.363Z,2.20
2018-04-15T07:01:44.849Z,1.83
2018-04-15T07:04:13.231Z,1.60
2018-04-15T07:06:41.655Z,1.47
2018-04-15T07:09:10.096Z,1.40
2018-04-15T07:11:38.513Z,1.27
2018-04-15T07:14:06.949Z,1.40
2018-04-15T07:16:35.758Z,1.50
2018-04-15T07:19:04.567Z,1.10
2018-04-15T07:21:32.960Z,1.20
2018-04-15T07:24:02.210Z,1.17
2018-04-15T07:26:30.811Z,1.00
2018-04-15T07:28:59.218Z,0.80
2018-04-15T07:31:27.714Z,0.80
2018-04-15T07:33:56.137Z,1.47
2018-04-15T07:36:24.659Z,1.80
2018-04-15T07:38:53.046Z,1.47
2018-04-15T07:41:21.476Z,5.17
2018-04-15T07:43:50.096Z,9.10
2018-04-15T07:46:19.014Z,2.33
2018-04-15T07:48:47.599Z,1.43
2018-04-15T07:51:16.081Z,1.70
2018-04-15T07:53:44.569Z,1.10
2018-04-15T07:56:13.018Z,1.67
2018-04-15T07:58:41.421Z,1.87
2018-04-15T08:01:09.885Z,1.87
2018-04-15T08:03:38.304Z,1.93
2018-04-15T08:06:06.943Z,2.10
2018-04-15T08:08:35.782Z,1.83
2018-04-15T08:11:04.212Z,3.63
2018-04-15T08:13:33.277Z,3.23
2018-04-15T08:16:01.945Z,3.90
2018-04-15T08:18:30.723Z,3.80
2018-04-15T08:20:59.175Z,3.40
2018-04-15T08:23:27.551Z,3.33
2018-04-15T08:25:56.047Z,3.47
2018-04-15T08:28:24.446Z,3.80
2018-04-15T08:30:52.895Z,3.23
2018-04-15T08:33:21.636Z,3.63
2018-04-15T08:35:50.019Z,4.37
2018-04-15T08:38:19.280Z,3.50
2018-04-15T08:40:47.643Z,4.20
2018-04-15T08:43:16.180Z,4.20
2018-04-15T08:45:44.602Z,4.20
2018-04-15T08:48:12.978Z,4.70
2018-04-15T08:50:41.350Z,4.20
2018-04-15T08:53:09.768Z,4.60
2018-04-15T08:55:38.256Z,5.20
2018-04-15T08:58:07.005Z,4.70
2018-04-15T09:00:35.715Z,5.00
2018-04-15T09:03:04.479Z,5.63
2018-04-15T09:05:32.886Z,6.03
2018-04-15T09:08:01.397Z,5.97
2018-04-15T09:10:29.808Z,6.30
2018-04-15T09:12:58.283Z,6.67
2018-04-15T09:15:26.680Z,6.50
2018-04-15T09:17:55.102Z,6.10
2018-04-15T09:20:23.533Z,7.00
2018-04-15T09:22:52.220Z,7.53
2018-04-15T09:25:20.910Z,6.40
2018-04-15T09:27:49.343Z,5.50
2018-04-15T09:30:17.757Z,5.37
2018-04-15T09:32:46.137Z,5.27
2018-04-15T09:35:15.929Z,5.43
2018-04-15T09:37:44.897Z,5.57
2018-04-15T09:40:14.234Z,6.17
2018-04-15T09:42:42.683Z,6.20
2018-04-15T09:45:11.155Z,6.17
2018-04-15T09:47:39.779Z,6.47
2018-04-15T09:50:08.247Z,5.53
2018-04-15T09:52:36.645Z,6.27
2018-04-15T09:55:05.141Z,6.63
2018-04-15T09:57:33.591Z,6.33
2018-04-15T10:00:01.986Z,7.00
2018-04-15T10:02:30.371Z,7.13
2018-04-15T10:04:58.736Z,7.43
2018-04-15T10:07:27.177Z,6.60
2018-04-15T10:09:55.537Z,7.90
2018-04-15T10:12:24.219Z,7.10
2018-04-15T10:14:52.607Z,7.60
2018-04-15T10:17:21.232Z,7.53
2018-04-15T10:19:49.668Z,7.03
2018-04-15T10:22:18.091Z,6.83
2018-04-15T10:24:46.537Z,7.57
2018-04-15T10:27:15.843Z,6.87
2018-04-15T10:29:44.788Z,7.47
2018-04-15T10:32:13.228Z,6.40
2018-04-15T10:34:41.716Z,7.20
2018-04-15T10:37:10.275Z,6.73
2018-04-15T10:39:40.045Z,7.73
2018-04-15T10:42:08.564Z,8.10
2018-04-15T10:44:37.018Z,8.00
2018-04-15T10:47:05.417Z,8.67
2018-04-15T10:49:33.871Z,7.93
2018-04-15T10:52:02.291Z,7.70
2018-04-15T10:54:30.710Z,7.90
2018-04-15T10:56:59.164Z,8.03
2018-04-15T10:59:27.540Z,6.40
2018-04-15T11:01:56.283Z,7.47
2018-04-15T11:04:24.668Z,7.50
2018-04-15T11:06:53.050Z,7.07
2018-04-15T11:09:21.478Z,7.47
2018-04-15T11:11:49.873Z,6.23
2018-04-15T11:14:18.258Z,5.77
2018-04-15T11:16:46.646Z,3.70
2018-04-15T11:19:15.115Z,4.90
2018-04-15T11:21:43.553Z,3.70
2018-04-15T11:24:11.948Z,3.93
2018-04-15T11:26:40.458Z,4.40
2018-04-15T11:29:08.852Z,3.67
2018-04-15T11:31:37.217Z,3.43
2018-04-15T11:34:05.675Z,3.53
2018-04-15T11:36:34.065Z,2.90
2018-04-15T11:39:02.485Z,2.37
2018-04-15T11:41:30.946Z,2.40
2018-04-15T11:43:59.339Z,2.60
2018-04-15T11:46:27.749Z,3.70
2018-04-15T11:48:56.298Z,3.17
2018-04-15T11:51:24.754Z,3.40
2018-04-15T11:53:53.434Z,1.97
2018-04-15T11:56:21.965Z,2.50
2018-04-15T11:58:50.388Z,3.53
2018-04-15T12:01:18.882Z,3.13
2018-04-15T12:03:47.302Z,1.70
2018-04-15T12:06:15.725Z,1.90
2018-04-15T12:08:44.148Z,1.80
2018-04-15T12:11:12.550Z,1.57
2018-04-15T12:13:41.059Z,1.80
2018-04-15T12:16:09.510Z,1.80
2018-04-15T12:18:37.967Z,1.20
2018-04-15T12:21:06.432Z,1.07
2018-04-15T12:23:34.849Z,1.50
2018-04-15T12:26:03.359Z,1.20
2018-04-15T12:28:31.803Z,1.30
2018-04-15T12:31:00.453Z,1.20
2018-04-15T12:33:28.887Z,1.33
2018-04-15T12:35:57.398Z,1.07
2018-04-15T12:38:25.878Z,1.03
2018-04-15T12:40:54.388Z,1.30
2018-04-15T12:43:22.812Z,1.13
2018-04-15T12:45:51.360Z,1.23
2018-04-15T12:48:19.807Z,1.00
2018-04-15T12:50:48.504Z,0.93
2018-04-15T12:53:16.962Z,1.20
2018-04-15T12:55:45.435Z,1.90
2018-04-15T12:58:13.981Z,0.90
2018-04-15T13:00:42.517Z,0.80
2018-04-15T13:03:10.930Z,0.80
2018-04-15T13:05:39.355Z,1.00
2018-04-15T13:08:08.064Z,0.90
2018-04-15T13:10:36.502Z,0.90
2018-04-15T13:13:04.975Z,0.83
2018-04-15T13:15:33.442Z,0.77
2018-04-15T13:18:01.935Z,0.90
2018-04-15T13:20:30.391Z,0.87
2018-04-15T13:22:58.946Z,0.93
2018-04-15T13:25:27.381Z,0.60
2018-04-15T13:27:55.790Z,0.73
2018-04-15T13:30:24.158Z,0.70
2018-04-15T13:32:52.556Z,0.80
2018-04-15T13:35:20.921Z,0.73
2018-04-15T13:37:49.365Z,0.63
2018-04-15T13:40:17.830Z,0.70
2018-04-15T13:42:46.354Z,0.80
2018-04-15T13:45:14.726Z,0.80
2018-04-15T13:47:43.187Z,0.63
2018-04-15T13:50:11.612Z,0.90
2018-04-15T13:52:40.088Z,0.70
2018-04-15T13:55:08.532Z,0.93
2018-04-15T13:57:37.012Z,0.70
2018-04-15T14:00:05.538Z,1.00
2018-04-15T14:02:33.955Z,0.70
2018-04-15T14:05:02.381Z,0.77
2018-04-15T14:07:30.922Z,0.60
2018-04-15T14:09:59.369Z,0.70
2018-04-15T14:12:27.834Z,0.77
2018-04-15T14:14:56.379Z,1.03
2018-04-15T14:17:24.848Z,0.77
2018-04-15T14:19:53.793Z,1.00
2018-04-15T14:22:22.223Z,1.00
2018-04-15T14:24:50.782Z,0.97
2018-04-15T14:27:19.221Z,0.60
2018-04-15T14:29:47.691Z,0.77
2018-04-15T14:32:16.121Z,0.80
2018-04-15T14:34:44.545Z,0.77
2018-04-15T14:37:12.981Z,1.00
2018-04-15T14:39:41.395Z,0.60
2018-04-15T14:42:10.191Z,0.90
2018-04-15T14:44:38.597Z,1.00
2018-04-15T14:47:07.206Z,0.60
2018-04-15T14:49:35.641Z,0.63
2018-04-15T14:52:05.072Z,1.10
2018-04-15T14:54:33.844Z,0.90
2018-04-15T14:57:02.384Z,0.77
2018-04-15T14:59:30.846Z,0.80
2018-04-15T15:01:59.348Z,0.77
2018-04-15T15:04:27.750Z,0.60
2018-04-15T15:06:56.239Z,0.70
2018-04-15T15:09:25.260Z,1.00
2018-04-15T15:11:54.980Z,0.80
2018-04-15T15:14:23.471Z,1.17
2018-04-15T15:16:51.889Z,0.90
2018-04-15T15:19:20.376Z,0.63
2018-04-15T15:21:48.790Z,0.90
2018-04-15T15:24:17.223Z,0.97
2018-04-15T15:26:45.648Z,0.80
2018-04-15T15:29:14.047Z,0.77
2018-04-15T15:31:42.481Z,0.80
2018-04-15T15:34:10.902Z,0.93
2018-04-15T15:36:39.405Z,0.63
2018-04-15T15:39:07.871Z,0.87
2018-04-15T15:41:36.281Z,1.00
2018-04-15T15:44:04.687Z,0.70
2018-04-15T15:46:33.106Z,0.83
2018-04-15T15:49:01.481Z,0.90
2018-04-15T15:51:30.158Z,0.87
2018-04-15T15:53:58.568Z,0.70
2018-04-15T15:56:27.010Z,0.87
2018-04-15T15:58:56.042Z,0.80
2018-04-15T16:01:24.424Z,0.70
2018-04-15T16:03:52.816Z,0.97
2018-04-15T16:06:21.230Z,0.90
2018-04-15T16:08:49.658Z,1.00
2018-04-15T16:11:18.049Z,0.77
2018-04-15T16:13:46.508Z,0.97
2018-04-15T16:16:14.986Z,1.03
2018-04-15T16:18:43.425Z,0.73
2018-04-15T16:21:11.790Z,0.80
2018-04-15T16:23:40.192Z,0.90
2018-04-15T16:26:08.565Z,0.80
2018-04-15T16:28:37.091Z,0.83
2018-04-15T16:31:05.493Z,0.90
2018-04-15T16:33:33.932Z,1.00
2018-04-15T16:36:02.344Z,1.00
2018-04-15T16:38:30.738Z,1.10
2018-04-15T16:40:59.120Z,0.60
2018-04-15T16:43:27.575Z,0.90
2018-04-15T16:45:55.982Z,0.70
2018-04-15T16:48:24.692Z,0.83
2018-04-15T16:50:53.168Z,0.80
2018-04-15T16:53:21.551Z,0.80
2018-04-15T16:55:49.912Z,0.80
2018-04-15T16:58:18.674Z,0.80
2018-04-15T17:00:47.221Z,0.90
2018-04-15T17:03:15.656Z,0.90
2018-04-15T17:05:44.042Z,0.87
2018-04-15T17:08:12.431Z,0.90
2018-04-15T17:10:41.240Z,0.80
2018-04-15T17:13:09.652Z,0.80
2018-04-15T17:15:38.084Z,1.13
2018-04-15T17:18:06.514Z,0.97
2018-04-15T17:20:34.864Z,1.50
2018-04-15T17:23:04.307Z,0.90
2018-04-15T17:25:32.877Z,0.90
2018-04-15T17:28:01.312Z,1.30
2018-04-15T17:30:29.683Z,1.27
2018-04-15T17:32:58.064Z,1.87
2018-04-15T17:35:26.470Z,1.57
2018-04-15T17:37:55.138Z,1.10
2018-04-15T17:40:23.525Z,0.70
2018-04-15T17:42:51.952Z,0.80
2018-04-15T17:45:20.376Z,0.93
2018-04-15T17:47:48.872Z,1.23
2018-04-15T17:50:17.279Z,1.30
2018-04-15T17:52:47.832Z,0.97
2018-04-15T17:55:17.680Z,1.00
2018-04-15T17:57:46.135Z,1.07
2018-04-15T18:00:14.538Z,0.90
2018-04-15T18:02:45.643Z,1.00
2018-04-15T18:05:14.126Z,0.93
2018-04-15T18:07:42.506Z,1.00
2018-04-15T18:10:10.958Z,0.87
2018-04-15T18:12:39.822Z,1.33
2018-04-15T18:18:44.184Z,0.90
2018-04-15T18:21:12.739Z,1.30
2018-04-15T18:23:41.154Z,0.90
2018-04-15T18:26:09.640Z,0.80
2018-04-15T18:28:39.469Z,1.40
2018-04-15T18:31:07.951Z,1.20
2018-04-15T18:33:36.439Z,1.10
2018-04-15T18:36:04.876Z,1.20
2018-04-15T18:38:33.810Z,1.00
2018-04-15T18:41:02.305Z,1.20
2018-04-15T18:43:30.853Z,0.87
2018-04-15T18:45:59.289Z,1.13
2018-04-15T18:48:27.717Z,0.90
2018-04-15T18:50:56.125Z,0.80
2018-04-15T18:53:24.529Z,1.27
2018-04-15T18:55:53.049Z,1.20
2018-04-15T18:58:21.986Z,0.90
2018-04-15T19:00:50.399Z,1.20
2018-04-15T19:03:18.809Z,1.30
2018-04-15T19:05:48.696Z,1.30
2018-04-15T19:08:17.260Z,1.67
2018-04-15T19:10:45.782Z,1.17
2018-04-15T19:13:14.236Z,1.23
2018-04-15T19:15:42.951Z,1.10
2018-04-15T19:18:11.341Z,1.27
2018-04-15T19:20:39.708Z,1.27
2018-04-15T19:23:08.191Z,1.10
2018-04-15T19:25:36.567Z,1.20
2018-04-15T19:28:05.186Z,2.03
2018-04-15T19:30:33.582Z,1.33
2018-04-15T19:33:01.972Z,1.90
2018-04-15T19:35:30.614Z,1.63
2018-04-15T19:37:59.010Z,1.83
2018-04-15T19:40:27.425Z,2.17
2018-04-15T19:42:57.356Z,1.80
2018-04-15T19:45:25.938Z,1.43
2018-04-15T19:47:54.422Z,1.60
2018-04-15T19:50:22.857Z,1.77
2018-04-15T19:52:51.267Z,1.80
2018-04-15T19:55:19.955Z,1.97
2018-04-15T19:57:48.434Z,1.40
2018-04-15T20:00:16.823Z,1.73
2018-04-15T20:02:45.272Z,1.70
2018-04-15T20:05:13.721Z,1.40
2018-04-15T20:07:42.090Z,1.60
2018-04-15T20:10:10.543Z,1.70
2018-04-15T20:12:38.949Z,1.43
2018-04-15T20:15:07.402Z,2.10
2018-04-15T20:17:36.489Z,2.10
2018-04-15T20:20:05.076Z,2.00
2018-04-15T20:22:33.492Z,2.17
2018-04-15T20:25:01.894Z,2.33
2018-04-15T20:27:30.328Z,2.30
2018-04-15T20:29:58.771Z,2.07
2018-04-15T20:32:27.175Z,1.80
2018-04-15T20:34:55.661Z,2.43
2018-04-15T20:37:24.119Z,2.47
2018-04-15T20:39:52.722Z,2.00
2018-04-15T20:42:23.453Z,2.07
2018-04-15T20:44:52.228Z,1.70
2018-04-15T20:47:21.197Z,1.70
2018-04-15T20:49:49.728Z,1.97
2018-04-15T20:52:18.140Z,1.57
2018-04-15T20:54:46.672Z,3.30
2018-04-15T20:57:15.112Z,3.10
2018-04-15T20:59:43.491Z,1.70
2018-04-15T21:02:11.963Z,2.10
2018-04-15T21:04:40.427Z,2.63
2018-04-15T21:07:08.822Z,2.20
2018-04-15T21:09:37.229Z,2.40
2018-04-15T21:12:05.692Z,2.50
2018-04-15T21:14:34.074Z,3.37
2018-04-15T21:17:02.487Z,5.17
2018-04-15T21:19:30.860Z,4.20
2018-04-15T21:21:59.250Z,3.80
2018-04-15T21:24:27.680Z,4.20
2018-04-15T21:26:56.159Z,2.30
2018-04-15T21:29:24.520Z,3.37
2018-04-15T21:31:52.885Z,2.47
2018-04-15T21:34:21.604Z,2.47
2018-04-15T21:36:49.967Z,2.57
2018-04-15T21:39:18.453Z,2.20
2018-04-15T21:41:46.834Z,2.17
2018-04-15T21:44:15.232Z,2.27
2018-04-15T21:46:43.637Z,2.07
2018-04-15T21:49:12.188Z,2.10
2018-04-15T21:51:41.156Z,3.07
2018-04-15T21:54:09.620Z,2.67
2018-04-15T21:56:38.184Z,2.30
2018-04-15T21:59:06.573Z,2.33
2018-04-15T22:01:35.311Z,1.87
2018-04-15T22:04:03.803Z,2.40
2018-04-15T22:06:32.575Z,2.10
2018-04-15T22:09:01.135Z,2.63
2018-04-15T22:11:41.071Z,2.93
2018-04-15T22:14:09.575Z,2.77
2018-04-15T22:16:37.934Z,2.50
2018-04-15T22:19:06.445Z,2.10
2018-04-15T22:21:34.863Z,2.40
2018-04-15T22:24:04.010Z,2.50
2018-04-15T22:26:32.808Z,2.30
2018-04-15T22:29:01.167Z,2.50
2018-04-15T22:31:29.563Z,2.13
2018-04-15T22:33:57.968Z,2.10
2018-04-15T22:36:26.333Z,2.67
2018-04-15T22:38:54.801Z,2.93
2018-04-15T22:41:23.195Z,4.20
2018-04-15T22:43:51.593Z,3.80
2018-04-15T22:46:19.959Z,4.20
2018-04-15T22:48:48.404Z,3.93
2018-04-15T22:51:19.048Z,4.13
2018-04-15T22:53:47.409Z,3.67
2018-04-15T22:56:15.827Z,4.20
2018-04-15T22:58:47.071Z,4.47
2018-04-15T23:01:16.393Z,3.60
2018-04-15T23:03:44.785Z,3.97
2018-04-15T23:06:13.222Z,4.50
2018-04-15T23:08:41.597Z,3.70
2018-04-15T23:11:09.981Z,4.10
2018-04-15T23:13:38.753Z,4.07
2018-04-15T23:16:07.123Z,4.40
2018-04-15T23:18:35.495Z,4.03
2018-04-15T23:21:03.850Z,3.80
2018-04-15T23:23:32.239Z,4.30
2018-04-15T23:26:00.748Z,4.03
2018-04-15T23:28:29.152Z,4.30
2018-04-15T23:30:57.576Z,3.63
2018-04-15T23:33:26.182Z,3.50
2018-04-15T23:35:54.601Z,4.27
2018-04-15T23:38:23.011Z,3.97
2018-04-15T23:40:51.764Z,3.40
2018-04-15T23:43:20.399Z,3.87
2018-04-15T23:45:48.768Z,4.50
2018-04-15T23:48:17.132Z,4.93
2018-04-15T23:50:45.505Z,5.30
2018-04-15T23:53:13.935Z,5.60
2018-04-15T23:55:42.312Z,5.10
2018-04-15T23:58:10.686Z,5.07
